createdAt,value
2022-10-25T00:01:21.991Z,82.75
2022-10-25T00:03:50.493Z,82.55
2022-10-25T00:06:19.057Z,82.62
2022-10-25T00:08:47.635Z,82.94
2022-10-25T00:11:20.832Z,82.93
2022-10-25T00:13:51.380Z,82.87
2022-10-25T00:16:22.556Z,82.76
2022-10-25T00:18:51.395Z,82.53
2022-10-25T00:21:20.363Z,82.73
2022-10-25T00:23:49.289Z,82.94
2022-10-25T00:26:17.639Z,83.15
2022-10-25T00:28:46.059Z,83.07
2022-10-25T00:31:17.357Z,83.13
2022-10-25T00:33:46.471Z,83.33
2022-10-25T00:36:17.165Z,83.46
2022-10-25T00:38:46.285Z,83.45
2022-10-25T00:41:16.045Z,83.67
2022-10-25T00:43:47.903Z,84.06
2022-10-25T00:46:24.515Z,84.03
2022-10-25T00:48:58.202Z,84.20
2022-10-25T00:51:31.441Z,84.33
2022-10-25T00:53:59.893Z,84.25
2022-10-25T00:56:32.996Z,84.42
2022-10-25T00:59:05.365Z,84.54
2022-10-25T01:01:35.497Z,84.76
2022-10-25T01:04:08.658Z,84.78
2022-10-25T01:06:40.411Z,84.69
2022-10-25T01:09:11.029Z,84.69
2022-10-25T01:11:39.449Z,84.79
2022-10-25T01:14:10.523Z,84.96
2022-10-25T01:16:49.265Z,84.63
2022-10-25T01:19:42.282Z,84.56
2022-10-25T01:22:17.144Z,84.49
2022-10-25T01:25:04.320Z,84.27
2022-10-25T01:30:31.199Z,84.46
2022-10-25T01:33:16.546Z,84.44
2022-10-25T01:35:54.401Z,84.42
2022-10-25T01:38:34.340Z,84.39
2022-10-25T01:41:12.759Z,84.41
2022-10-25T01:43:46.746Z,84.33
2022-10-25T01:46:25.260Z,84.42
2022-10-25T01:49:02.243Z,84.41
2022-10-25T01:51:30.549Z,84.28
2022-10-25T01:53:58.992Z,84.31
2022-10-25T01:56:30.917Z,84.40
2022-10-25T01:59:14.456Z,84.48
2022-10-25T02:01:55.216Z,84.50
2022-10-25T02:04:40.329Z,84.41
2022-10-25T02:07:12.221Z,84.33
2022-10-25T02:09:50.833Z,84.46
2022-10-25T02:12:26.543Z,84.64
2022-10-25T02:15:05.455Z,84.63
2022-10-25T02:17:37.844Z,84.46
2022-10-25T02:20:10.035Z,84.82
2022-10-25T02:22:39.401Z,84.70
2022-10-25T02:25:10.552Z,84.66
2022-10-25T02:27:40.799Z,84.80
2022-10-25T02:30:10.230Z,84.86
2022-10-25T02:32:38.587Z,84.84
2022-10-25T02:35:15.498Z,84.86
2022-10-25T02:37:44.410Z,84.87
2022-10-25T02:40:13.792Z,84.73
2022-10-25T02:42:42.124Z,84.76
2022-10-25T02:45:11.541Z,84.43
2022-10-25T02:47:40.716Z,84.74
2022-10-25T02:50:10.968Z,84.64
2022-10-25T02:52:42.120Z,84.46
2022-10-25T02:55:11.004Z,84.45
2022-10-25T02:57:39.604Z,84.61
2022-10-25T03:00:10.492Z,84.50
2022-10-25T03:02:38.827Z,84.44
2022-10-25T03:05:07.736Z,84.43
2022-10-25T03:07:37.432Z,84.26
2022-10-25T03:10:06.796Z,84.38
2022-10-25T03:12:35.126Z,84.46
2022-10-25T03:15:03.451Z,84.66
2022-10-25T03:17:31.837Z,84.49
2022-10-25T03:20:00.173Z,84.72
2022-10-25T03:22:28.565Z,84.51
2022-10-25T03:24:58.359Z,84.72
2022-10-25T03:27:26.701Z,84.81
2022-10-25T03:29:54.997Z,84.56
2022-10-25T03:32:23.312Z,84.71
2022-10-25T03:34:51.676Z,84.81
2022-10-25T03:37:19.988Z,84.61
2022-10-25T03:39:48.319Z,84.70
2022-10-25T03:42:17.988Z,84.91
2022-10-25T03:44:46.306Z,85.04
2022-10-25T03:47:14.637Z,84.92
2022-10-25T03:49:43.137Z,84.87
2022-10-25T03:52:12.224Z,85.03
2022-10-25T03:54:42.289Z,85.02
2022-10-25T03:57:10.705Z,84.98
2022-10-25T03:59:40.439Z,84.70
2022-10-25T04:02:08.877Z,84.68
2022-10-25T04:04:37.319Z,84.78
2022-10-25T04:07:05.762Z,84.73
2022-10-25T04:09:34.361Z,84.84
2022-10-25T04:12:02.938Z,84.89
2022-10-25T04:14:31.475Z,84.93
2022-10-25T04:17:01.223Z,84.98
2022-10-25T04:19:29.512Z,85.12
2022-10-25T04:21:58.305Z,85.02
2022-10-25T04:24:26.695Z,85.01
2022-10-25T04:26:54.981Z,85.13
2022-10-25T04:29:23.637Z,85.30
2022-10-25T04:31:51.977Z,85.36
2022-10-25T04:34:21.743Z,85.16
2022-10-25T04:36:50.086Z,85.31
2022-10-25T04:39:18.433Z,85.59
2022-10-25T04:41:46.755Z,85.70
2022-10-25T04:44:15.340Z,85.63
2022-10-25T04:46:46.435Z,85.69
2022-10-25T04:49:17.404Z,85.64
2022-10-25T04:51:47.246Z,85.75
2022-10-25T04:54:15.811Z,85.84
2022-10-25T04:56:44.152Z,85.68
2022-10-25T04:59:13.311Z,85.84
2022-10-25T05:01:41.791Z,85.87
2022-10-25T05:04:10.279Z,85.65
2022-10-25T05:06:38.625Z,85.81
2022-10-25T05:09:08.308Z,85.95
2022-10-25T05:14:10.702Z,85.83
2022-10-25T05:16:39.378Z,86.11
2022-10-25T05:19:08.042Z,86.11
2022-10-25T05:21:36.481Z,86.23
2022-10-25T05:24:05.258Z,86.37
2022-10-25T05:26:35.042Z,86.34
2022-10-25T05:29:05.616Z,86.28
2022-10-25T05:31:38.587Z,86.18
2022-10-25T05:34:06.959Z,86.22
2022-10-25T05:36:35.275Z,86.32
2022-10-25T05:39:03.704Z,86.15
2022-10-25T05:41:34.739Z,86.19
2022-10-25T05:44:07.282Z,85.98
2022-10-25T05:46:35.652Z,86.21
2022-10-25T05:49:05.011Z,86.18
2022-10-25T05:51:36.260Z,86.31
2022-10-25T05:54:07.576Z,86.29
2022-10-25T05:56:36.325Z,86.33
2022-10-25T05:59:09.095Z,86.44
2022-10-25T06:01:39.608Z,86.36
2022-10-25T06:04:08.613Z,86.20
2022-10-25T06:06:37.873Z,86.39
2022-10-25T06:09:06.955Z,86.20
2022-10-25T06:11:35.872Z,86.31
2022-10-25T06:14:06.278Z,86.35
2022-10-25T06:16:34.941Z,86.25
2022-10-25T06:19:03.293Z,86.20
2022-10-25T06:21:32.047Z,86.20
2022-10-25T06:24:01.764Z,86.11
2022-10-25T06:26:31.642Z,86.15
2022-10-25T06:29:01.565Z,86.30
2022-10-25T06:31:31.895Z,86.12
2022-10-25T06:34:01.095Z,86.19
2022-10-25T06:36:31.107Z,86.36
2022-10-25T06:39:05.476Z,85.95
2022-10-25T06:41:37.673Z,86.14
2022-10-25T06:44:07.561Z,85.93
2022-10-25T06:49:27.868Z,86.14
2022-10-25T06:51:56.271Z,85.92
2022-10-25T06:54:26.626Z,85.84
2022-10-25T06:56:55.129Z,86.06
2022-10-25T06:59:23.703Z,85.89
2022-10-25T07:01:55.186Z,86.01
2022-10-25T07:04:24.309Z,86.21
2022-10-25T07:06:55.189Z,85.89
2022-10-25T07:09:23.899Z,86.05
2022-10-25T07:11:52.423Z,85.79
2022-10-25T07:14:20.796Z,85.94
2022-10-25T07:16:49.113Z,85.87
2022-10-25T07:19:18.795Z,85.62
2022-10-25T07:21:47.154Z,85.69
2022-10-25T07:24:15.472Z,85.84
2022-10-25T07:26:44.149Z,85.66
2022-10-25T07:29:12.644Z,85.68
2022-10-25T07:31:44.265Z,85.62
2022-10-25T07:34:14.614Z,85.40
2022-10-25T07:36:45.608Z,85.47
2022-10-25T07:39:14.000Z,85.59
2022-10-25T07:41:42.360Z,85.53
2022-10-25T07:44:15.911Z,85.58
2022-10-25T07:46:45.229Z,85.47
2022-10-25T07:49:15.238Z,85.37
2022-10-25T07:51:45.055Z,85.45
2022-10-25T07:54:13.483Z,85.34
2022-10-25T07:56:41.901Z,85.11
2022-10-25T07:59:10.268Z,85.29
2022-10-25T08:01:38.744Z,84.94
2022-10-25T08:04:07.139Z,85.10
2022-10-25T08:06:36.215Z,85.09
2022-10-25T08:09:14.545Z,85.11
2022-10-25T08:11:48.809Z,85.00
2022-10-25T08:14:17.391Z,85.06
2022-10-25T08:16:45.806Z,84.82
2022-10-25T08:19:14.159Z,85.00
2022-10-25T08:21:42.543Z,84.91
2022-10-25T08:24:12.504Z,84.48
2022-10-25T08:26:40.901Z,84.53
2022-10-25T08:29:09.385Z,84.16
2022-10-25T08:31:37.842Z,84.29
2022-10-25T08:34:06.229Z,84.21
2022-10-25T08:36:34.764Z,83.89
2022-10-25T08:39:03.123Z,83.93
2022-10-25T08:41:48.036Z,83.98
2022-10-25T08:44:21.836Z,83.69
2022-10-25T08:46:58.324Z,83.87
2022-10-25T08:49:33.055Z,83.71
2022-10-25T08:52:02.885Z,83.76
2022-10-25T08:54:35.837Z,83.50
2022-10-25T08:57:16.710Z,83.07
2022-10-25T08:59:50.139Z,82.78
2022-10-25T09:02:24.498Z,82.80
2022-10-25T09:04:53.008Z,82.85
2022-10-25T09:07:46.735Z,82.84
2022-10-25T09:10:24.275Z,82.91
2022-10-25T09:13:08.341Z,83.09
2022-10-25T09:15:54.756Z,82.65
2022-10-25T09:18:33.128Z,82.64
2022-10-25T09:21:11.553Z,82.43
2022-10-25T09:23:51.589Z,82.23
2022-10-25T09:26:39.283Z,82.14
2022-10-25T09:29:25.177Z,81.92
2022-10-25T09:31:57.370Z,81.93
2022-10-25T09:34:29.500Z,81.74
2022-10-25T09:37:05.108Z,81.47
2022-10-25T09:39:38.818Z,81.41
2022-10-25T09:42:15.840Z,81.11
2022-10-25T09:44:51.021Z,81.00
2022-10-25T09:47:29.224Z,81.04
2022-10-25T09:50:02.606Z,80.90
2022-10-25T09:52:38.033Z,80.54
2022-10-25T09:55:30.165Z,80.33
2022-10-25T09:57:58.520Z,80.43
2022-10-25T10:00:29.434Z,80.16
2022-10-25T10:02:58.001Z,80.01
2022-10-25T10:05:26.718Z,79.85
2022-10-25T10:07:55.491Z,79.84
2022-10-25T10:10:27.676Z,79.81
2022-10-25T10:13:01.595Z,79.68
2022-10-25T10:15:36.591Z,79.56
2022-10-25T10:18:25.799Z,79.22
2022-10-25T10:20:59.384Z,79.55
2022-10-25T10:23:29.521Z,79.50
2022-10-25T10:26:01.539Z,79.54
2022-10-25T10:28:30.187Z,79.41
2022-10-25T10:31:00.552Z,79.32
2022-10-25T10:33:33.930Z,79.23
2022-10-25T10:36:28.040Z,78.69
2022-10-25T10:39:13.615Z,79.00
2022-10-25T10:41:58.313Z,78.74
2022-10-25T10:44:26.678Z,78.57
2022-10-25T10:46:56.928Z,78.37
2022-10-25T10:49:36.520Z,77.88
2022-10-25T10:52:06.012Z,77.99
2022-10-25T10:54:37.877Z,77.78
2022-10-25T10:57:08.233Z,77.66
2022-10-25T10:59:41.197Z,77.44
2022-10-25T11:02:27.450Z,76.93
2022-10-25T11:04:57.958Z,77.10
2022-10-25T11:07:36.853Z,76.71
2022-10-25T11:10:23.842Z,76.32
2022-10-25T11:13:10.647Z,76.17
2022-10-25T11:16:11.419Z,75.91
2022-10-25T11:19:02.916Z,76.01
2022-10-25T11:21:55.383Z,75.56
2022-10-25T11:24:34.846Z,75.64
2022-10-25T11:27:12.317Z,75.42
2022-10-25T11:30:04.776Z,74.80
2022-10-25T11:33:15.112Z,74.77
2022-10-25T11:36:02.255Z,74.52
2022-10-25T11:38:43.016Z,74.48
2022-10-25T11:41:24.904Z,73.90
2022-10-25T11:44:05.848Z,73.59
2022-10-25T11:46:44.432Z,73.48
2022-10-25T11:49:34.384Z,72.84
2022-10-25T11:52:26.806Z,72.38
2022-10-25T11:55:05.517Z,72.52
2022-10-25T11:57:44.240Z,72.17
2022-10-25T12:00:17.035Z,72.12
2022-10-25T12:03:07.003Z,71.27
2022-10-25T12:05:44.695Z,71.29
2022-10-25T12:08:27.509Z,70.71
2022-10-25T12:10:59.627Z,71.02
2022-10-25T12:13:32.456Z,70.38
2022-10-25T12:16:01.371Z,70.07
2022-10-25T12:18:36.600Z,69.69
2022-10-25T12:21:06.805Z,69.50
2022-10-25T12:23:43.962Z,69.13
2022-10-25T12:26:21.124Z,69.08
2022-10-25T12:28:51.349Z,68.82
2022-10-25T12:31:22.648Z,68.68
2022-10-25T12:33:56.570Z,68.21
2022-10-25T12:36:31.793Z,68.48
2022-10-25T12:39:05.525Z,68.82
2022-10-25T12:41:38.779Z,68.99
2022-10-25T12:44:23.964Z,68.83
2022-10-25T12:47:05.289Z,68.50
2022-10-25T12:53:20.797Z,67.31
2022-10-25T12:56:01.730Z,67.63
2022-10-25T12:58:50.757Z,67.22
2022-10-25T13:01:39.335Z,66.85
2022-10-25T13:04:46.558Z,65.75
2022-10-25T13:07:15.780Z,66.77
2022-10-25T13:09:44.416Z,66.15
2022-10-25T13:12:23.956Z,65.28
2022-10-25T13:14:54.763Z,65.72
2022-10-25T13:17:48.198Z,65.16
2022-10-25T13:20:51.324Z,64.81
2022-10-25T13:23:53.880Z,64.93
2022-10-25T13:26:25.692Z,65.50
2022-10-25T13:28:57.544Z,64.90
2022-10-25T13:31:46.980Z,63.81
2022-10-25T13:34:23.740Z,64.42
2022-10-25T13:36:55.330Z,64.57
2022-10-25T13:39:27.455Z,64.29
2022-10-25T13:42:01.847Z,63.87
2022-10-25T13:44:31.885Z,63.81
2022-10-25T13:47:00.728Z,63.98
2022-10-25T13:49:32.891Z,63.79
2022-10-25T13:52:05.196Z,63.43
2022-10-25T13:54:51.890Z,62.24
2022-10-25T13:57:52.923Z,61.64
2022-10-25T14:00:34.716Z,61.69
2022-10-25T14:03:34.490Z,60.74
2022-10-25T14:06:23.954Z,60.13
2022-10-25T14:09:00.599Z,60.67
2022-10-25T14:11:37.655Z,59.91
2022-10-25T14:14:17.256Z,59.55
2022-10-25T14:17:00.808Z,58.91
2022-10-25T14:19:37.945Z,58.38
2022-10-25T14:22:14.971Z,57.56
2022-10-25T14:24:47.727Z,57.35
2022-10-25T14:27:30.905Z,56.38
2022-10-25T14:30:24.305Z,56.87
2022-10-25T14:32:56.488Z,57.79
2022-10-25T14:35:27.059Z,58.08
2022-10-25T14:37:55.689Z,58.35
2022-10-25T14:40:26.051Z,58.66
2022-10-25T14:42:55.709Z,59.14
2022-10-25T14:45:26.421Z,60.18
2022-10-25T14:47:56.769Z,60.65
2022-10-25T14:50:27.016Z,60.93
2022-10-25T14:53:05.603Z,61.42
2022-10-25T14:55:35.060Z,61.54
2022-10-25T14:58:05.344Z,61.56
2022-10-25T15:00:33.938Z,61.40
2022-10-25T15:03:06.679Z,61.29
2022-10-25T15:05:35.140Z,61.63
2022-10-25T15:08:03.534Z,62.00
2022-10-25T15:10:40.786Z,62.26
2022-10-25T15:13:16.633Z,62.51
2022-10-25T15:15:46.680Z,62.86
2022-10-25T15:18:35.461Z,63.25
2022-10-25T15:21:07.320Z,63.57
2022-10-25T15:23:36.237Z,63.65
2022-10-25T15:26:24.393Z,63.50
2022-10-25T15:28:55.500Z,63.74
2022-10-25T15:31:26.025Z,64.04
2022-10-25T15:34:03.092Z,64.01
2022-10-25T15:36:33.651Z,64.13
2022-10-25T15:39:10.166Z,64.47
2022-10-25T15:41:41.160Z,64.64
2022-10-25T15:44:09.744Z,64.73
2022-10-25T15:46:38.429Z,64.79
2022-10-25T15:49:09.059Z,65.09
2022-10-25T15:51:40.044Z,65.31
2022-10-25T15:54:14.635Z,65.78
2022-10-25T15:56:43.036Z,65.94
2022-10-25T15:59:11.507Z,66.19
2022-10-25T16:01:42.702Z,66.31
2022-10-25T16:04:15.507Z,66.71
2022-10-25T16:06:44.677Z,66.76
2022-10-25T16:09:13.228Z,66.73
2022-10-25T16:11:46.297Z,66.82
2022-10-25T16:14:21.736Z,67.02
2022-10-25T16:16:50.716Z,67.44
2022-10-25T16:19:21.928Z,67.78
2022-10-25T16:21:50.326Z,68.01
2022-10-25T16:24:19.718Z,68.13
2022-10-25T16:26:49.353Z,68.57
2022-10-25T16:29:19.572Z,68.71
2022-10-25T16:31:48.311Z,68.62
2022-10-25T16:34:17.385Z,68.66
2022-10-25T16:36:48.196Z,68.81
2022-10-25T16:39:16.929Z,69.22
2022-10-25T16:41:47.191Z,69.08
2022-10-25T16:44:18.200Z,69.31
2022-10-25T16:46:47.092Z,69.50
2022-10-25T16:49:15.440Z,69.86
2022-10-25T16:51:44.207Z,70.04
2022-10-25T16:54:15.609Z,70.24
2022-10-25T16:56:44.153Z,70.33
2022-10-25T16:59:12.503Z,70.64
2022-10-25T17:01:44.573Z,70.92
2022-10-25T17:04:14.678Z,70.85
2022-10-25T17:06:43.218Z,70.98
2022-10-25T17:09:13.243Z,70.77
2022-10-25T17:11:41.697Z,71.17
2022-10-25T17:14:10.637Z,71.44
2022-10-25T17:16:40.684Z,71.49
2022-10-25T17:19:10.644Z,71.66
2022-10-25T17:21:39.381Z,71.75
2022-10-25T17:24:09.710Z,71.73
2022-10-25T17:26:40.236Z,71.95
2022-10-25T17:29:08.677Z,72.18
2022-10-25T17:31:37.403Z,71.99
2022-10-25T17:34:05.888Z,71.86
2022-10-25T17:36:34.616Z,72.28
2022-10-25T17:39:03.032Z,72.43
2022-10-25T17:41:31.533Z,72.71
2022-10-25T17:44:01.287Z,72.78
2022-10-25T17:46:31.757Z,72.90
2022-10-25T17:49:03.233Z,73.10
2022-10-25T17:51:33.220Z,73.09
2022-10-25T17:54:01.804Z,72.90
2022-10-25T17:59:07.132Z,72.61
2022-10-25T18:01:37.032Z,72.38
2022-10-25T18:04:05.504Z,72.82
2022-10-25T18:06:33.865Z,73.05
2022-10-25T18:09:03.846Z,73.51
2022-10-25T18:11:32.468Z,73.93
2022-10-25T18:14:02.184Z,73.85
2022-10-25T18:16:33.220Z,74.09
2022-10-25T18:19:03.424Z,73.69
2022-10-25T18:21:33.151Z,73.79
2022-10-25T18:24:03.655Z,74.07
2022-10-25T18:26:33.139Z,73.71
2022-10-25T18:29:01.961Z,73.77
2022-10-25T18:31:31.979Z,73.85
2022-10-25T18:34:03.456Z,73.79
2022-10-25T18:36:32.562Z,73.70
2022-10-25T18:39:01.240Z,73.82
2022-10-25T18:41:31.496Z,73.97
2022-10-25T18:44:00.755Z,73.94
2022-10-25T18:46:30.846Z,74.15
2022-10-25T18:49:00.970Z,73.77
2022-10-25T18:51:30.162Z,73.96
2022-10-25T18:53:59.829Z,74.07
2022-10-25T18:56:29.313Z,74.24
2022-10-25T18:58:59.038Z,74.35
2022-10-25T19:01:32.543Z,74.53
2022-10-25T19:04:04.161Z,74.71
2022-10-25T19:06:33.783Z,74.81
2022-10-25T19:09:03.951Z,74.63
2022-10-25T19:11:33.301Z,74.84
2022-10-25T19:14:03.213Z,74.77
2022-10-25T19:16:31.818Z,75.01
2022-10-25T19:19:07.108Z,75.08
2022-10-25T19:21:35.972Z,74.77
2022-10-25T19:24:04.742Z,75.03
2022-10-25T19:26:33.608Z,75.18
2022-10-25T19:29:02.399Z,74.68
2022-10-25T19:31:30.908Z,74.69
2022-10-25T19:34:00.452Z,74.74
2022-10-25T19:36:31.502Z,74.67
2022-10-25T19:39:01.712Z,74.97
2022-10-25T19:41:30.110Z,74.86
2022-10-25T19:43:59.383Z,74.73
2022-10-25T19:46:27.827Z,75.07
2022-10-25T19:49:00.209Z,74.49
2022-10-25T19:51:29.968Z,74.67
2022-10-25T19:53:58.335Z,74.62
2022-10-25T19:56:26.724Z,74.85
2022-10-25T19:58:55.189Z,74.86
2022-10-25T20:01:25.157Z,75.13
2022-10-25T20:03:55.688Z,75.11
2022-10-25T20:06:25.526Z,75.37
2022-10-25T20:08:56.479Z,74.96
2022-10-25T20:11:28.085Z,75.07
2022-10-25T20:13:57.647Z,74.88
2022-10-25T20:16:27.443Z,74.84
2022-10-25T20:18:56.277Z,75.06
2022-10-25T20:21:26.158Z,75.36
2022-10-25T20:23:57.807Z,75.43
2022-10-25T20:26:27.859Z,75.30
2022-10-25T20:28:57.977Z,75.39
2022-10-25T20:31:28.008Z,74.83
2022-10-25T20:33:56.779Z,75.36
2022-10-25T20:36:25.947Z,74.75
2022-10-25T20:38:55.829Z,75.22
2022-10-25T20:41:26.900Z,75.25
2022-10-25T20:43:57.740Z,75.11
2022-10-25T20:46:28.525Z,75.01
2022-10-25T20:48:58.176Z,75.57
2022-10-25T20:51:27.057Z,75.58
2022-10-25T20:53:57.768Z,75.56
2022-10-25T20:56:26.212Z,75.57
2022-10-25T20:58:54.506Z,75.36
2022-10-25T21:01:22.895Z,75.70
2022-10-25T21:03:51.696Z,75.71
2022-10-25T21:06:22.437Z,75.84
2022-10-25T21:08:50.827Z,75.91
2022-10-25T21:11:22.188Z,75.57
2022-10-25T21:13:51.919Z,75.99
2022-10-25T21:16:21.469Z,75.84
2022-10-25T21:18:50.436Z,75.73
2022-10-25T21:21:20.570Z,75.75
2022-10-25T21:23:55.316Z,75.71
2022-10-25T21:26:27.337Z,75.72
2022-10-25T21:28:57.344Z,76.02
2022-10-25T21:31:26.753Z,75.96
2022-10-25T21:33:59.337Z,75.91
2022-10-25T21:36:29.188Z,76.13
2022-10-25T21:38:57.993Z,76.38
2022-10-25T21:41:27.811Z,76.19
2022-10-25T21:43:56.948Z,76.22
2022-10-25T21:46:27.855Z,76.42
2022-10-25T21:48:56.425Z,76.69
2022-10-25T21:51:25.368Z,76.51
2022-10-25T21:53:54.118Z,76.61
2022-10-25T21:56:23.497Z,76.99
2022-10-25T21:58:53.452Z,77.11
2022-10-25T22:01:24.480Z,77.06
2022-10-25T22:03:53.192Z,76.91
2022-10-25T22:06:23.895Z,77.16
2022-10-25T22:08:53.848Z,77.03
2022-10-25T22:11:24.495Z,76.95
2022-10-25T22:13:58.436Z,76.92
2022-10-25T22:16:27.088Z,77.00
2022-10-25T22:18:57.668Z,77.10
2022-10-25T22:21:26.892Z,77.28
2022-10-25T22:23:55.347Z,77.29
2022-10-25T22:26:23.882Z,77.46
2022-10-25T22:28:53.553Z,77.39
2022-10-25T22:31:24.742Z,77.51
2022-10-25T22:33:54.796Z,77.75
2022-10-25T22:36:24.333Z,77.84
2022-10-25T22:38:52.693Z,77.79
2022-10-25T22:41:23.208Z,77.69
2022-10-25T22:43:51.841Z,77.65
2022-10-25T22:46:25.027Z,77.63
2022-10-25T22:48:56.653Z,77.78
2022-10-25T22:51:27.045Z,77.84
2022-10-25T22:53:55.446Z,77.69
2022-10-25T22:56:25.436Z,77.77
2022-10-25T22:58:55.864Z,77.79
2022-10-25T23:01:26.015Z,77.96
2022-10-25T23:03:58.191Z,77.82
2022-10-25T23:06:28.630Z,78.04
2022-10-25T23:08:58.891Z,77.81
2022-10-25T23:11:29.041Z,77.68
2022-10-25T23:13:58.251Z,77.82
2022-10-25T23:16:26.983Z,77.76
2022-10-25T23:18:57.005Z,78.04
2022-10-25T23:21:27.757Z,77.85
2022-10-25T23:23:57.291Z,78.12
2022-10-25T23:26:27.129Z,77.91
2022-10-25T23:28:56.193Z,77.79
2022-10-25T23:31:25.812Z,77.79
2022-10-25T23:33:56.911Z,77.74
2022-10-25T23:36:27.171Z,77.74
2022-10-25T23:38:58.850Z,77.66
2022-10-25T23:41:27.231Z,77.77
2022-10-25T23:43:55.567Z,77.63
2022-10-25T23:46:23.928Z,77.65
2022-10-25T23:48:52.250Z,77.69
2022-10-25T23:51:21.979Z,77.82
2022-10-25T23:53:50.321Z,77.69
2022-10-25T23:56:18.680Z,77.82
2022-10-25T23:58:50.551Z,77.74
